Airfield :
LOGIN :

Register | Disclaimer

   EN    FR    IT 

 










Legend :    VFR   Marginal VFR   IFR   Intensive IFR   Very Intensive IFR
Visi :
Ceiling :
>= 8 km
>= 3000ft
5 to 8 km
1000 to 3000 ft
1500m to 5 km
500 to 1000 ft
800 to 1500m
200 to 500 ft
< 800m
< 200 ft
Symbols :   Thunderstorms  Fog  Heavy snow  Heavy precipitations  Wind > 20 kt
SIGMETs :     Misc.  Thunderstorms  Icing  Turbulence  Mountain Waves  Volcanic Ashes






- Airport Elevation : 1470 ft


LSMD - Dubendorf Military

CURRENT METAR :
  • 021150Z AUTO 07007KT 030V120 9999NDV NCD 24/14 Q1021 RMK

EXPIRED METARs :
  • 021120Z AUTO 03007KT 330V070 9999NDV NCD 23/13 Q1022 RMK
  • 021050Z AUTO 04005KT 340V100 9999NDV NCD 23/15 Q1022 RMK
  • 021020Z AUTO 03005KT 300V090 9999NDV NCD 22/13 Q1022 RMK
  • 020950Z AUTO 05006KT 350V100 9999NDV NCD 21/14 Q1022 RMK
  • 020920Z AUTO 04005KT 330V100 9999NDV NCD 20/14 Q1022 RMK
  • 020850Z AUTO 05005KT 340V100 9999NDV FEW019 19/14 Q1023 RMK

Expired Forecast.



MET'MAP, your aeronautical weather chart ! - Copyright ORBIFLY December 2007 - Disclaimer

ORBIFLY MET'MAP TEAM :

Programming & Development : Alexandra Zaïnal
Original concept : Baudouin d'Aumeries
Technical & hardware support : Manuel Goepfert
Assistance : Marc-Olivier Méhu




SOURCES & CREDITS :

   NOAA